sensor_id;sensor_type;location;lat;lon;timestamp;pressure;altitude;pressure_sealevel;temperature;humidity
40592;BME280;26301;42.832;23.918;2024-03-29T00:00:37;92890.63;;;13.30;43.33
40592;BME280;26301;42.832;23.918;2024-03-29T00:03:03;92886.19;;;13.25;43.66
40592;BME280;26301;42.832;23.918;2024-03-29T00:05:28;92895.53;;;13.26;44.05
40592;BME280;26301;42.832;23.918;2024-03-29T00:07:54;92907.47;;;13.27;43.74
40592;BME280;26301;42.832;23.918;2024-03-29T00:10:19;92903.78;;;13.23;43.34
40592;BME280;26301;42.832;23.918;2024-03-29T00:12:45;92880.47;;;13.18;44.15
40592;BME280;26301;42.832;23.918;2024-03-29T00:15:10;92884.56;;;13.04;43.47
40592;BME280;26301;42.832;23.918;2024-03-29T00:17:36;92900.16;;;13.19;43.68
40592;BME280;26301;42.832;23.918;2024-03-29T00:20:02;92877.03;;;13.02;43.42
40592;BME280;26301;42.832;23.918;2024-03-29T00:22:28;92872.88;;;12.96;43.39
40592;BME280;26301;42.832;23.918;2024-03-29T00:24:54;92857.59;;;12.95;42.92
40592;BME280;26301;42.832;23.918;2024-03-29T00:27:20;92882.72;;;12.99;43.21
40592;BME280;26301;42.832;23.918;2024-03-29T00:29:47;92886.34;;;12.93;42.63
40592;BME280;26301;42.832;23.918;2024-03-29T00:32:14;92874.44;;;13.02;42.97
40592;BME280;26301;42.832;23.918;2024-03-29T00:34:39;92890.03;;;13.08;43.94
40592;BME280;26301;42.832;23.918;2024-03-29T00:37:05;92889.22;;;13.02;44.72
40592;BME280;26301;42.832;23.918;2024-03-29T00:39:30;92869.22;;;12.82;44.61
40592;BME280;26301;42.832;23.918;2024-03-29T00:41:55;92873.84;;;12.75;46.12
40592;BME280;26301;42.832;23.918;2024-03-29T00:44:21;92910.19;;;12.90;45.72
40592;BME280;26301;42.832;23.918;2024-03-29T00:46:46;92885.22;;;12.58;46.40
40592;BME280;26301;42.832;23.918;2024-03-29T00:49:12;92916.56;;;12.62;46.31
40592;BME280;26301;42.832;23.918;2024-03-29T00:51:38;92916.28;;;12.58;46.49
40592;BME280;26301;42.832;23.918;2024-03-29T00:54:05;92914.44;;;12.49;45.63
40592;BME280;26301;42.832;23.918;2024-03-29T00:56:30;92925.88;;;12.58;45.56
40592;BME280;26301;42.832;23.918;2024-03-29T00:58:56;92904.78;;;12.34;46.32
40592;BME280;26301;42.832;23.918;2024-03-29T01:01:21;92904.72;;;12.24;48.04
40592;BME280;26301;42.832;23.918;2024-03-29T01:03:47;92897.06;;;12.02;47.99
40592;BME280;26301;42.832;23.918;2024-03-29T01:06:12;92899.41;;;12.03;46.79
40592;BME280;26301;42.832;23.918;2024-03-29T01:08:38;92899.88;;;11.95;47.66
40592;BME280;26301;42.832;23.918;2024-03-29T01:11:03;92885.53;;;11.82;49.51
40592;BME280;26301;42.832;23.918;2024-03-29T01:13:29;92896.84;;;11.76;49.03
40592;BME280;26301;42.832;23.918;2024-03-29T01:15:54;92893.44;;;11.65;49.06
40592;BME280;26301;42.832;23.918;2024-03-29T01:18:20;92916.28;;;11.79;49.03
40592;BME280;26301;42.832;23.918;2024-03-29T01:20:45;92904.22;;;11.57;49.83
40592;BME280;26301;42.832;23.918;2024-03-29T01:23:11;92890.38;;;11.41;50.42
40592;BME280;26301;42.832;23.918;2024-03-29T01:25:36;92886.63;;;11.27;51.09
40592;BME280;26301;42.832;23.918;2024-03-29T01:28:01;92896.13;;;11.16;52.09
40592;BME280;26301;42.832;23.918;2024-03-29T01:30:28;92943.44;;;11.22;51.09
40592;BME280;26301;42.832;23.918;2024-03-29T01:32:53;92868.22;;;10.69;50.35
40592;BME280;26301;42.832;23.918;2024-03-29T01:35:19;92950.56;;;11.10;51.77
40592;BME280;26301;42.832;23.918;2024-03-29T01:37:44;92949.50;;;11.06;53.44
40592;BME280;26301;42.832;23.918;2024-03-29T01:40:10;92962.34;;;11.01;51.88
40592;BME280;26301;42.832;23.918;2024-03-29T01:42:36;92956.19;;;11.02;52.58
40592;BME280;26301;42.832;23.918;2024-03-29T01:45:01;92970.38;;;10.99;53.31
40592;BME280;26301;42.832;23.918;2024-03-29T01:47:27;92964.00;;;10.85;53.42
40592;BME280;26301;42.832;23.918;2024-03-29T01:49:52;92970.31;;;10.72;53.45
40592;BME280;26301;42.832;23.918;2024-03-29T01:52:19;92970.72;;;10.64;55.18
40592;BME280;26301;42.832;23.918;2024-03-29T01:54:45;92986.03;;;10.70;54.27
40592;BME280;26301;42.832;23.918;2024-03-29T01:57:12;92962.53;;;10.50;54.46
40592;BME280;26301;42.832;23.918;2024-03-29T01:59:40;92979.41;;;10.58;54.60
40592;BME280;26301;42.832;23.918;2024-03-29T02:02:08;92984.50;;;10.52;55.31
40592;BME280;26301;42.832;23.918;2024-03-29T02:04:35;92995.84;;;10.51;56.10
40592;BME280;26301;42.832;23.918;2024-03-29T02:07:01;92973.25;;;10.25;56.22
40592;BME280;26301;42.832;23.918;2024-03-29T02:09:26;92996.72;;;10.23;57.27
40592;BME280;26301;42.832;23.918;2024-03-29T02:11:52;93014.47;;;10.20;57.91
40592;BME280;26301;42.832;23.918;2024-03-29T02:14:18;92991.78;;;9.88;58.23
40592;BME280;26301;42.832;23.918;2024-03-29T02:16:43;93007.50;;;9.87;59.19
40592;BME280;26301;42.832;23.918;2024-03-29T02:19:09;93032.19;;;9.82;59.72
40592;BME280;26301;42.832;23.918;2024-03-29T02:21:37;93036.53;;;9.65;59.98
40592;BME280;26301;42.832;23.918;2024-03-29T02:24:07;93031.69;;;9.52;61.02
40592;BME280;26301;42.832;23.918;2024-03-29T02:26:33;93023.31;;;9.45;62.30
40592;BME280;26301;42.832;23.918;2024-03-29T02:29:04;93041.63;;;9.20;63.63
40592;BME280;26301;42.832;23.918;2024-03-29T02:31:29;93048.75;;;9.01;63.78
40592;BME280;26301;42.832;23.918;2024-03-29T02:33:55;93052.09;;;9.01;65.92
40592;BME280;26301;42.832;23.918;2024-03-29T02:36:21;93028.50;;;8.69;66.21
40592;BME280;26301;42.832;23.918;2024-03-29T02:38:46;93041.38;;;8.69;67.25
40592;BME280;26301;42.832;23.918;2024-03-29T02:41:12;93023.41;;;8.45;67.57
40592;BME280;26301;42.832;23.918;2024-03-29T02:43:37;93057.84;;;8.56;68.08
40592;BME280;26301;42.832;23.918;2024-03-29T02:46:03;93039.78;;;8.33;67.36
40592;BME280;26301;42.832;23.918;2024-03-29T02:48:28;93043.72;;;8.35;67.35
40592;BME280;26301;42.832;23.918;2024-03-29T02:50:54;93054.59;;;8.37;67.06
40592;BME280;26301;42.832;23.918;2024-03-29T02:53:19;93061.44;;;8.43;66.79
40592;BME280;26301;42.832;23.918;2024-03-29T02:55:44;93028.97;;;8.31;66.21
40592;BME280;26301;42.832;23.918;2024-03-29T02:58:10;93057.19;;;8.61;65.77
40592;BME280;26301;42.832;23.918;2024-03-29T03:00:35;93054.81;;;8.71;64.29
40592;BME280;26301;42.832;23.918;2024-03-29T03:03:01;93059.72;;;8.84;64.09
40592;BME280;26301;42.832;23.918;2024-03-29T03:05:26;93072.97;;;8.88;63.82
40592;BME280;26301;42.832;23.918;2024-03-29T03:07:52;93037.03;;;8.69;64.11
40592;BME280;26301;42.832;23.918;2024-03-29T03:10:44;93072.84;;;8.95;63.48
40592;BME280;26301;42.832;23.918;2024-03-29T03:13:27;93056.63;;;8.82;63.02
40592;BME280;26301;42.832;23.918;2024-03-29T03:15:53;93066.91;;;8.82;63.01
40592;BME280;26301;42.832;23.918;2024-03-29T03:18:19;93100.16;;;9.07;63.19
40592;BME280;26301;42.832;23.918;2024-03-29T03:20:54;93093.75;;;9.10;63.43
40592;BME280;26301;42.832;23.918;2024-03-29T03:23:20;93069.69;;;8.92;63.42
40592;BME280;26301;42.832;23.918;2024-03-29T03:25:56;93080.00;;;8.92;63.42
40592;BME280;26301;42.832;23.918;2024-03-29T03:28:22;93092.97;;;9.09;63.22
40592;BME280;26301;42.832;23.918;2024-03-29T03:30:52;93089.28;;;9.05;63.82
40592;BME280;26301;42.832;23.918;2024-03-29T03:33:18;93064.00;;;8.90;63.45
40592;BME280;26301;42.832;23.918;2024-03-29T03:35:44;93088.03;;;9.08;64.13
40592;BME280;26301;42.832;23.918;2024-03-29T03:38:10;93107.97;;;9.24;63.47
40592;BME280;26301;42.832;23.918;2024-03-29T03:40:37;93112.25;;;9.19;62.98
40592;BME280;26301;42.832;23.918;2024-03-29T03:43:03;93089.41;;;8.87;63.94
40592;BME280;26301;42.832;23.918;2024-03-29T03:45:33;93115.63;;;8.96;64.47
40592;BME280;26301;42.832;23.918;2024-03-29T03:47:58;93121.91;;;8.88;63.30
40592;BME280;26301;42.832;23.918;2024-03-29T03:50:24;93116.19;;;8.86;63.63
40592;BME280;26301;42.832;23.918;2024-03-29T03:52:49;93139.13;;;8.99;63.16
40592;BME280;26301;42.832;23.918;2024-03-29T03:55:15;93142.97;;;8.97;63.87
40592;BME280;26301;42.832;23.918;2024-03-29T03:57:42;93143.63;;;8.92;63.82
40592;BME280;26301;42.832;23.918;2024-03-29T04:00:07;93160.31;;;9.01;64.67
40592;BME280;26301;42.832;23.918;2024-03-29T04:02:34;93161.53;;;8.99;64.88
40592;BME280;26301;42.832;23.918;2024-03-29T04:05:00;93172.41;;;9.01;65.34
40592;BME280;26301;42.832;23.918;2024-03-29T04:07:25;93163.19;;;8.81;66.13
40592;BME280;26301;42.832;23.918;2024-03-29T04:09:51;93179.91;;;8.90;66.16
40592;BME280;26301;42.832;23.918;2024-03-29T04:12:17;93182.25;;;8.80;66.44
40592;BME280;26301;42.832;23.918;2024-03-29T04:14:42;93185.72;;;8.74;66.07
40592;BME280;26301;42.832;23.918;2024-03-29T04:17:11;93172.03;;;8.62;66.77
40592;BME280;26301;42.832;23.918;2024-03-29T04:19:36;93189.50;;;8.72;67.51
40592;BME280;26301;42.832;23.918;2024-03-29T04:22:02;93184.56;;;8.58;67.43
40592;BME280;26301;42.832;23.918;2024-03-29T04:24:53;93192.41;;;8.52;67.31
40592;BME280;26301;42.832;23.918;2024-03-29T04:27:19;93174.06;;;8.30;67.46
40592;BME280;26301;42.832;23.918;2024-03-29T04:29:44;93134.94;;;8.09;66.57
40592;BME280;26301;42.832;23.918;2024-03-29T04:32:10;93172.63;;;8.34;66.92
40592;BME280;26301;42.832;23.918;2024-03-29T04:34:48;93195.19;;;8.50;66.66
40592;BME280;26301;42.832;23.918;2024-03-29T04:37:25;93205.72;;;8.60;65.33
40592;BME280;26301;42.832;23.918;2024-03-29T04:39:51;93201.47;;;8.66;64.67
40592;BME280;26301;42.832;23.918;2024-03-29T04:42:16;93213.38;;;8.79;65.70
40592;BME280;26301;42.832;23.918;2024-03-29T04:44:42;93197.38;;;8.77;64.84
40592;BME280;26301;42.832;23.918;2024-03-29T04:47:46;93192.53;;;8.80;63.64
40592;BME280;26301;42.832;23.918;2024-03-29T04:50:11;93232.78;;;9.05;65.58
40592;BME280;26301;42.832;23.918;2024-03-29T04:52:37;93203.19;;;8.96;64.26
40592;BME280;26301;42.832;23.918;2024-03-29T04:55:03;93168.34;;;8.81;63.20
40592;BME280;26301;42.832;23.918;2024-03-29T04:57:29;93217.91;;;9.30;63.55
40592;BME280;26301;42.832;23.918;2024-03-29T04:59:54;93229.63;;;9.61;61.74
40592;BME280;26301;42.832;23.918;2024-03-29T05:02:20;93243.38;;;9.91;60.58
40592;BME280;26301;42.832;23.918;2024-03-29T05:04:45;93242.97;;;10.11;59.76
40592;BME280;26301;42.832;23.918;2024-03-29T05:07:11;93226.03;;;10.15;59.19
40592;BME280;26301;42.832;23.918;2024-03-29T05:09:36;93232.75;;;10.56;57.00
40592;BME280;26301;42.832;23.918;2024-03-29T05:12:02;93252.75;;;10.94;54.47
40592;BME280;26301;42.832;23.918;2024-03-29T05:14:27;93254.47;;;11.39;53.19
40592;BME280;26301;42.832;23.918;2024-03-29T05:16:53;93233.75;;;11.56;51.70
40592;BME280;26301;42.832;23.918;2024-03-29T05:19:18;93236.44;;;11.83;51.95
40592;BME280;26301;42.832;23.918;2024-03-29T05:21:44;93249.41;;;12.27;49.97
40592;BME280;26301;42.832;23.918;2024-03-29T05:24:09;93236.47;;;12.54;48.46
40592;BME280;26301;42.832;23.918;2024-03-29T05:26:35;93266.13;;;12.91;48.46
40592;BME280;26301;42.832;23.918;2024-03-29T05:29:01;93259.91;;;13.24;46.16
40592;BME280;26301;42.832;23.918;2024-03-29T05:31:28;93268.88;;;13.43;46.54
40592;BME280;26301;42.832;23.918;2024-03-29T05:34:26;93247.69;;;13.57;45.37
40592;BME280;26301;42.832;23.918;2024-03-29T05:36:52;93257.97;;;13.84;44.55
40592;BME280;26301;42.832;23.918;2024-03-29T05:39:17;93248.44;;;13.94;44.67
40592;BME280;26301;42.832;23.918;2024-03-29T05:41:44;93280.53;;;14.31;43.85
40592;BME280;26301;42.832;23.918;2024-03-29T05:44:09;93276.41;;;14.40;43.93
40592;BME280;26301;42.832;23.918;2024-03-29T05:46:35;93249.66;;;14.39;42.94
40592;BME280;26301;42.832;23.918;2024-03-29T05:49:26;93280.19;;;14.75;42.88
40592;BME280;26301;42.832;23.918;2024-03-29T05:51:57;93273.94;;;14.86;42.56
40592;BME280;26301;42.832;23.918;2024-03-29T05:54:23;93275.56;;;15.07;42.39
40592;BME280;26301;42.832;23.918;2024-03-29T05:56:50;93278.41;;;15.21;42.59
40592;BME280;26301;42.832;23.918;2024-03-29T05:59:15;93283.88;;;15.30;41.75
40592;BME280;26301;42.832;23.918;2024-03-29T06:01:40;93273.22;;;15.37;41.04
40592;BME280;26301;42.832;23.918;2024-03-29T06:04:07;93271.13;;;15.44;40.73
40592;BME280;26301;42.832;23.918;2024-03-29T06:06:40;93288.06;;;15.72;41.11
40592;BME280;26301;42.832;23.918;2024-03-29T06:09:05;93260.19;;;15.62;40.80
40592;BME280;26301;42.832;23.918;2024-03-29T06:11:30;93264.91;;;15.70;39.94
40592;BME280;26301;42.832;23.918;2024-03-29T06:13:56;93289.03;;;16.07;40.14
40592;BME280;26301;42.832;23.918;2024-03-29T06:16:25;93295.53;;;16.14;40.03
40592;BME280;26301;42.832;23.918;2024-03-29T06:22:23;93319.56;;;16.76;39.44
40592;BME280;26301;42.832;23.918;2024-03-29T06:24:49;93311.97;;;16.75;40.35
40592;BME280;26301;42.832;23.918;2024-03-29T06:27:17;93316.13;;;16.86;39.53
40592;BME280;26301;42.832;23.918;2024-03-29T06:29:43;93312.44;;;16.92;38.89
40592;BME280;26301;42.832;23.918;2024-03-29T06:32:09;93301.16;;;17.02;40.33
40592;BME280;26301;42.832;23.918;2024-03-29T06:34:34;93308.69;;;17.08;40.08
40592;BME280;26301;42.832;23.918;2024-03-29T06:37:00;93299.59;;;17.06;39.85
40592;BME280;26301;42.832;23.918;2024-03-29T06:39:25;93323.66;;;17.32;38.38
40592;BME280;26301;42.832;23.918;2024-03-29T06:41:52;93301.00;;;17.27;38.08
40592;BME280;26301;42.832;23.918;2024-03-29T06:44:17;93319.03;;;17.58;39.23
40592;BME280;26301;42.832;23.918;2024-03-29T06:46:43;93318.38;;;17.76;38.82
40592;BME280;26301;42.832;23.918;2024-03-29T06:49:08;93341.91;;;18.05;39.06
40592;BME280;26301;42.832;23.918;2024-03-29T06:51:34;93347.56;;;18.18;38.65
40592;BME280;26301;42.832;23.918;2024-03-29T06:53:59;93334.69;;;18.21;36.98
40592;BME280;26301;42.832;23.918;2024-03-29T06:56:25;93332.59;;;18.23;38.34
40592;BME280;26301;42.832;23.918;2024-03-29T06:58:50;93313.50;;;18.23;39.14
40592;BME280;26301;42.832;23.918;2024-03-29T07:01:16;93329.66;;;18.54;36.08
40592;BME280;26301;42.832;23.918;2024-03-29T07:03:41;93338.69;;;18.62;37.22
40592;BME280;26301;42.832;23.918;2024-03-29T07:06:07;93348.03;;;18.68;36.75
40592;BME280;26301;42.832;23.918;2024-03-29T07:08:32;93329.47;;;18.69;36.67
40592;BME280;26301;42.832;23.918;2024-03-29T07:10:59;93333.97;;;18.88;35.86
40592;BME280;26301;42.832;23.918;2024-03-29T07:13:28;93345.94;;;18.94;35.88
40592;BME280;26301;42.832;23.918;2024-03-29T07:15:54;93313.75;;;18.75;35.09
40592;BME280;26301;42.832;23.918;2024-03-29T07:18:19;93337.94;;;19.04;36.14
40592;BME280;26301;42.832;23.918;2024-03-29T07:20:45;93352.44;;;19.34;36.17
40592;BME280;26301;42.832;23.918;2024-03-29T07:23:10;93349.34;;;19.51;36.50
40592;BME280;26301;42.832;23.918;2024-03-29T07:25:37;93353.72;;;19.75;36.89
40592;BME280;26301;42.832;23.918;2024-03-29T07:28:02;93352.00;;;19.84;34.46
40592;BME280;26301;42.832;23.918;2024-03-29T07:30:28;93366.72;;;19.99;35.84
40592;BME280;26301;42.832;23.918;2024-03-29T07:32:53;93352.53;;;20.00;33.30
40592;BME280;26301;42.832;23.918;2024-03-29T07:35:19;93364.41;;;20.11;35.10
40592;BME280;26301;42.832;23.918;2024-03-29T07:37:44;93367.91;;;20.20;35.33
40592;BME280;26301;42.832;23.918;2024-03-29T07:40:13;93367.66;;;20.36;34.03
40592;BME280;26301;42.832;23.918;2024-03-29T07:42:38;93365.53;;;20.38;36.75
40592;BME280;26301;42.832;23.918;2024-03-29T07:45:04;93339.53;;;19.95;33.23
40592;BME280;26301;42.832;23.918;2024-03-29T07:47:30;93340.75;;;19.83;34.25
40592;BME280;26301;42.832;23.918;2024-03-29T07:49:55;93350.41;;;19.69;34.25
40592;BME280;26301;42.832;23.918;2024-03-29T07:52:21;93348.41;;;19.80;36.01
40592;BME280;26301;42.832;23.918;2024-03-29T07:54:47;93369.06;;;20.14;34.49
40592;BME280;26301;42.832;23.918;2024-03-29T07:57:13;93358.31;;;19.83;32.96
40592;BME280;26301;42.832;23.918;2024-03-29T07:59:40;93368.81;;;19.83;32.97
40592;BME280;26301;42.832;23.918;2024-03-29T08:02:06;93367.03;;;20.11;33.58
40592;BME280;26301;42.832;23.918;2024-03-29T08:04:52;93369.09;;;20.42;32.79
40592;BME280;26301;42.832;23.918;2024-03-29T08:07:23;93360.19;;;20.43;35.11
40592;BME280;26301;42.832;23.918;2024-03-29T08:10:04;93355.22;;;20.41;32.56
40592;BME280;26301;42.832;23.918;2024-03-29T08:12:31;93369.25;;;20.64;33.88
40592;BME280;26301;42.832;23.918;2024-03-29T08:14:58;93351.16;;;20.49;33.93
40592;BME280;26301;42.832;23.918;2024-03-29T08:17:24;93366.34;;;20.52;32.59
40592;BME280;26301;42.832;23.918;2024-03-29T08:19:50;93358.88;;;20.73;33.45
40592;BME280;26301;42.832;23.918;2024-03-29T08:22:15;93359.16;;;20.71;32.17
40592;BME280;26301;42.832;23.918;2024-03-29T08:24:41;93362.94;;;20.79;32.30
40592;BME280;26301;42.832;23.918;2024-03-29T08:27:07;93344.53;;;20.38;32.97
40592;BME280;26301;42.832;23.918;2024-03-29T08:29:32;93350.66;;;20.47;33.52
40592;BME280;26301;42.832;23.918;2024-03-29T08:31:58;93364.97;;;20.54;33.33
40592;BME280;26301;42.832;23.918;2024-03-29T08:34:23;93355.31;;;20.50;33.18
40592;BME280;26301;42.832;23.918;2024-03-29T08:36:49;93373.06;;;20.58;32.80
40592;BME280;26301;42.832;23.918;2024-03-29T08:39:15;93342.63;;;20.71;32.04
40592;BME280;26301;42.832;23.918;2024-03-29T08:41:42;93340.19;;;20.88;32.66
40592;BME280;26301;42.832;23.918;2024-03-29T08:44:07;93344.34;;;21.03;31.48
40592;BME280;26301;42.832;23.918;2024-03-29T08:46:33;93330.22;;;21.13;32.76
40592;BME280;26301;42.832;23.918;2024-03-29T08:48:58;93321.41;;;21.31;31.77
40592;BME280;26301;42.832;23.918;2024-03-29T08:51:24;93336.75;;;21.52;31.31
40592;BME280;26301;42.832;23.918;2024-03-29T08:53:49;93338.59;;;21.74;33.27
40592;BME280;26301;42.832;23.918;2024-03-29T08:56:15;93335.19;;;21.73;31.61
40592;BME280;26301;42.832;23.918;2024-03-29T08:58:41;93315.06;;;21.68;30.83
40592;BME280;26301;42.832;23.918;2024-03-29T09:01:07;93332.69;;;21.90;31.12
40592;BME280;26301;42.832;23.918;2024-03-29T09:03:32;93312.09;;;21.92;30.96
40592;BME280;26301;42.832;23.918;2024-03-29T09:06:15;93308.69;;;21.92;30.05
40592;BME280;26301;42.832;23.918;2024-03-29T09:09:07;93307.06;;;22.05;30.26
40592;BME280;26301;42.832;23.918;2024-03-29T09:11:33;93313.84;;;22.28;32.34
40592;BME280;26301;42.832;23.918;2024-03-29T09:13:59;93311.44;;;22.41;31.40
40592;BME280;26301;42.832;23.918;2024-03-29T09:16:25;93269.00;;;22.33;31.29
40592;BME280;26301;42.832;23.918;2024-03-29T09:18:51;93280.69;;;22.58;33.02
40592;BME280;26301;42.832;23.918;2024-03-29T09:21:16;93287.06;;;22.66;30.08
40592;BME280;26301;42.832;23.918;2024-03-29T09:24:04;93306.56;;;22.65;32.02
40592;BME280;26301;42.832;23.918;2024-03-29T09:26:29;93308.88;;;22.67;30.99
40592;BME280;26301;42.832;23.918;2024-03-29T09:29:10;93287.78;;;22.49;28.46
40592;BME280;26301;42.832;23.918;2024-03-29T09:31:39;93283.06;;;22.29;29.64
40592;BME280;26301;42.832;23.918;2024-03-29T09:34:04;93273.63;;;22.28;30.07
40592;BME280;26301;42.832;23.918;2024-03-29T09:36:30;93280.44;;;22.29;31.25
40592;BME280;26301;42.832;23.918;2024-03-29T09:38:55;93299.28;;;22.22;32.00
40592;BME280;26301;42.832;23.918;2024-03-29T09:41:21;93282.66;;;22.13;31.02
40592;BME280;26301;42.832;23.918;2024-03-29T09:43:48;93304.91;;;22.29;32.58
40592;BME280;26301;42.832;23.918;2024-03-29T09:46:16;93286.97;;;22.40;30.07
40592;BME280;26301;42.832;23.918;2024-03-29T09:48:42;93293.63;;;22.37;31.48
40592;BME280;26301;42.832;23.918;2024-03-29T09:51:11;93279.44;;;22.16;30.02
40592;BME280;26301;42.832;23.918;2024-03-29T09:53:41;93282.59;;;22.27;31.01
40592;BME280;26301;42.832;23.918;2024-03-29T09:56:07;93259.81;;;22.22;30.17
40592;BME280;26301;42.832;23.918;2024-03-29T09:58:34;93262.16;;;22.24;33.07
40592;BME280;26301;42.832;23.918;2024-03-29T10:01:02;93245.75;;;22.18;33.07
40592;BME280;26301;42.832;23.918;2024-03-29T10:03:29;93264.03;;;22.32;30.75
40592;BME280;26301;42.832;23.918;2024-03-29T10:05:59;93266.06;;;22.26;34.07
40592;BME280;26301;42.832;23.918;2024-03-29T10:08:29;93269.94;;;22.37;29.77
40592;BME280;26301;42.832;23.918;2024-03-29T10:10:57;93268.56;;;22.40;29.99
40592;BME280;26301;42.832;23.918;2024-03-29T10:13:23;93271.53;;;22.16;29.45
40592;BME280;26301;42.832;23.918;2024-03-29T10:15:53;93250.16;;;22.09;30.39
40592;BME280;26301;42.832;23.918;2024-03-29T10:18:25;93268.50;;;22.23;29.25
40592;BME280;26301;42.832;23.918;2024-03-29T10:23:29;93262.53;;;22.40;31.43
40592;BME280;26301;42.832;23.918;2024-03-29T10:25:55;93251.25;;;22.48;30.35
40592;BME280;26301;42.832;23.918;2024-03-29T10:28:22;93236.38;;;22.43;30.71
40592;BME280;26301;42.832;23.918;2024-03-29T10:30:48;93250.31;;;22.52;30.20
40592;BME280;26301;42.832;23.918;2024-03-29T10:33:15;93247.22;;;22.59;30.87
40592;BME280;26301;42.832;23.918;2024-03-29T10:35:42;93235.94;;;22.58;30.32
40592;BME280;26301;42.832;23.918;2024-03-29T10:38:09;93229.78;;;22.72;30.87
40592;BME280;26301;42.832;23.918;2024-03-29T10:40:39;93226.78;;;22.47;29.93
40592;BME280;26301;42.832;23.918;2024-03-29T10:43:10;93229.13;;;22.57;31.16
40592;BME280;26301;42.832;23.918;2024-03-29T10:45:39;93225.41;;;22.58;31.25
40592;BME280;26301;42.832;23.918;2024-03-29T10:48:06;93247.75;;;22.78;31.12
40592;BME280;26301;42.832;23.918;2024-03-29T10:50:38;93233.78;;;22.60;31.01
40592;BME280;26301;42.832;23.918;2024-03-29T10:53:06;93237.66;;;22.63;32.07
40592;BME280;26301;42.832;23.918;2024-03-29T10:55:35;93227.28;;;22.67;32.18
40592;BME280;26301;42.832;23.918;2024-03-29T11:01:01;93233.31;;;22.67;29.95
40592;BME280;26301;42.832;23.918;2024-03-29T11:03:41;93230.06;;;22.70;30.82
40592;BME280;26301;42.832;23.918;2024-03-29T11:06:12;93232.84;;;22.74;30.78
40592;BME280;26301;42.832;23.918;2024-03-29T11:08:38;93223.22;;;22.43;32.13
40592;BME280;26301;42.832;23.918;2024-03-29T11:11:11;93213.28;;;22.40;33.73
40592;BME280;26301;42.832;23.918;2024-03-29T11:14:02;93217.31;;;22.37;31.50
40592;BME280;26301;42.832;23.918;2024-03-29T11:16:29;93225.72;;;22.48;30.49
40592;BME280;26301;42.832;23.918;2024-03-29T11:18:54;93167.38;;;22.06;29.78
40592;BME280;26301;42.832;23.918;2024-03-29T11:21:21;93222.13;;;22.35;30.81
40592;BME280;26301;42.832;23.918;2024-03-29T11:23:51;93227.03;;;22.28;30.65
40592;BME280;26301;42.832;23.918;2024-03-29T11:26:18;93204.22;;;22.06;31.41
40592;BME280;26301;42.832;23.918;2024-03-29T11:28:51;93220.69;;;22.21;30.49
40592;BME280;26301;42.832;23.918;2024-03-29T11:31:17;93223.53;;;22.10;31.48
40592;BME280;26301;42.832;23.918;2024-03-29T11:36:23;93204.13;;;22.29;31.06
40592;BME280;26301;42.832;23.918;2024-03-29T11:38:51;93214.97;;;22.27;30.10
40592;BME280;26301;42.832;23.918;2024-03-29T11:41:20;93212.56;;;22.08;30.38
40592;BME280;26301;42.832;23.918;2024-03-29T11:43:49;93206.72;;;21.80;30.58
40592;BME280;26301;42.832;23.918;2024-03-29T11:46:15;93210.19;;;21.98;32.37
40592;BME280;26301;42.832;23.918;2024-03-29T11:48:41;93230.59;;;22.24;29.50
40592;BME280;26301;42.832;23.918;2024-03-29T11:51:10;93199.88;;;22.10;32.47
40592;BME280;26301;42.832;23.918;2024-03-29T11:53:36;93216.97;;;22.22;29.58
40592;BME280;26301;42.832;23.918;2024-03-29T11:56:03;93194.47;;;22.15;30.13
40592;BME280;26301;42.832;23.918;2024-03-29T11:58:30;93187.97;;;22.13;29.46
40592;BME280;26301;42.832;23.918;2024-03-29T12:00:58;93205.69;;;22.30;32.53
40592;BME280;26301;42.832;23.918;2024-03-29T12:03:29;93188.28;;;22.11;32.39
40592;BME280;26301;42.832;23.918;2024-03-29T12:05:56;93187.25;;;22.21;31.36
40592;BME280;26301;42.832;23.918;2024-03-29T12:08:32;93182.06;;;22.07;30.08
40592;BME280;26301;42.832;23.918;2024-03-29T12:10:59;93195.75;;;22.18;31.08
40592;BME280;26301;42.832;23.918;2024-03-29T12:13:25;93172.72;;;22.24;29.70
40592;BME280;26301;42.832;23.918;2024-03-29T12:15:51;93188.34;;;22.29;29.75
40592;BME280;26301;42.832;23.918;2024-03-29T12:18:16;93193.63;;;22.37;32.16
40592;BME280;26301;42.832;23.918;2024-03-29T12:20:45;93172.72;;;22.24;31.37
40592;BME280;26301;42.832;23.918;2024-03-29T12:26:33;93165.47;;;22.38;29.42
40592;BME280;26301;42.832;23.918;2024-03-29T12:28:59;93189.31;;;22.59;31.54
40592;BME280;26301;42.832;23.918;2024-03-29T12:31:25;93184.84;;;22.59;30.00
40592;BME280;26301;42.832;23.918;2024-03-29T12:33:53;93185.47;;;22.56;29.63
40592;BME280;26301;42.832;23.918;2024-03-29T12:36:23;93187.31;;;22.65;29.82
40592;BME280;26301;42.832;23.918;2024-03-29T12:38:49;93168.44;;;22.45;29.34
40592;BME280;26301;42.832;23.918;2024-03-29T12:41:17;93165.03;;;22.45;29.95
40592;BME280;26301;42.832;23.918;2024-03-29T12:43:43;93163.00;;;22.50;31.77
40592;BME280;26301;42.832;23.918;2024-03-29T12:46:08;93135.25;;;22.18;29.58
40592;BME280;26301;42.832;23.918;2024-03-29T12:48:35;93180.34;;;22.43;29.77
40592;BME280;26301;42.832;23.918;2024-03-29T12:51:01;93180.97;;;22.57;31.16
40592;BME280;26301;42.832;23.918;2024-03-29T12:53:28;93188.72;;;22.71;29.91
40592;BME280;26301;42.832;23.918;2024-03-29T12:55:53;93171.38;;;22.61;31.96
40592;BME280;26301;42.832;23.918;2024-03-29T12:58:19;93183.16;;;22.72;31.73
40592;BME280;26301;42.832;23.918;2024-03-29T13:00:48;93169.50;;;22.62;29.86
40592;BME280;26301;42.832;23.918;2024-03-29T13:03:13;93165.34;;;22.60;29.24
40592;BME280;26301;42.832;23.918;2024-03-29T13:05:40;93170.44;;;22.57;29.68
40592;BME280;26301;42.832;23.918;2024-03-29T13:08:08;93184.69;;;22.65;28.91